logo dgac
Miércoles 19 de Junio del 2024
Buscar por aerodromo o helipuerto
Ingrese nombre de aeródromo, localidad o designador OACI:

Aeródromo: Mataveri (PUB) (SCIP)

Ubicación: Isla de Pascua, V Región, Chile (27º 09' 53'' S, 109º 25' 19'' W) Ver ubicación en el mapa

Pistas

Luces
Orientación Dimensión Pendiente Superficie Resistencia APCH THR RWY PAPI
10/28 3300 x 45 0,90 ASPH 65 F/C/W/T
Horas de operación O/R
Elevación 69 m / 227 ft
Otra Información Adm : D.G.A.C
Uso : PUB
Ubicado a 500 m S Hanga Roa

TEL/FAX(56)322100237 / Fax: 322100245

Otra información ver AIP-Chile Volumen I AD 2.6-1 SCIP
CCCM/FCCV Descargar CCCM/FCCV
andera de Chile
Mapa de  Mataveri (PUB) (SCIP)

Último METAR

METAR SCIP 191100Z 06003KT 020V110 9999 BKN015 18/17 Q1025 NOSIG

Último TAF

TAF SCIP 190447Z 1912/2012 07004KT 9999 SCT020 TX22/1920Z TN17/1913Z

Últimas fotos cámaras

Imagen aerodromo  Mataveri (PUB) (SCIP) Este tomada el 15-06-2024 08:07:32 Imagen aerodromo  Mataveri (PUB) (SCIP) S-Oeste tomada el 19-06-2024 11:27:51 Imagen aerodromo  Mataveri (PUB) (SCIP) Oeste tomada el 19-06-2024 11:30:54

Último NOTAM

A1917/24 NOTAMN Q)SCIZ/QFMLT/IV/BO/A/000/999/2710S10925W005 A)SCIP B)2406102127 C)2406202359 E)VISIBILIMETER AUTOMATIC WEATHER STATION RWY 28 NOT AVBL